EST,Max TemperatureF,Mean TemperatureF,Min TemperatureF,Max Dew PointF,MeanDew PointF,Min DewpointF,Max Humidity, Mean Humidity, Min Humidity, Max Sea Level PressureIn, Mean Sea Level PressureIn, Min Sea Level PressureIn, Max VisibilityMiles, Mean VisibilityMiles, Min VisibilityMiles, Max Wind SpeedMPH, Mean Wind SpeedMPH, Max Gust SpeedMPH,PrecipitationIn, CloudCover, Events, WindDirDegrees
2013-1-1,78,61,44,61,55,45,100,81,50,30.24,30.11,30.01,10,7,0,15,3,18,0.00,4,,210
2013-1-2,69,64,60,66,61,59,94,88,78,30.12,30.03,29.97,10,9,2,14,7,17,0.00,7,,249
2013-1-3,60,56,51,59,55,50,100,95,82,30.27,30.17,30.09,10,10,2,7,3,,0.00,8,,341
2013-1-4,57,50,44,50,47,45,100,88,67,30.36,30.31,30.26,10,9,0,9,3,,0.00,3,,352
2013-1-5,64,50,37,52,45,36,100,81,59,30.38,30.33,30.29,10,9,0,9,2,,0.00,1,,38
2013-1-6,59,56,53,55,53,50,100,93,82,30.29,30.21,30.15,10,9,3,8,1,,0.00,8,,313
2013-1-7,60,51,42,52,47,41,94,79,67,30.34,30.29,30.21,10,10,7,16,7,25,0.00,1,,17
2013-1-8,69,62,55,61,56,52,94,86,68,30.35,30.29,30.26,10,10,10,10,7,,0.00,5,,38
2013-1-9,71,66,62,70,65,61,100,95,88,30.39,30.34,30.28,10,8,1,10,6,,0.00,8,,49
2013-1-10,71,66,62,70,65,61,100,95,83,30.40,30.35,30.32,10,5,0,14,4,18,0.00,8,,56
2013-1-11,82,68,55,72,64,55,100,87,48,30.32,30.24,30.19,10,7,0,10,3,,0.00,3,,170
2013-1-12,82,71,60,72,65,59,100,84,54,30.22,30.17,30.13,10,8,0,8,4,,0.00,3,,182
2013-1-13,80,68,55,70,63,55,100,85,57,30.19,30.14,30.10,10,6,0,12,2,,0.00,2,,162
2013-1-14,84,74,64,68,65,64,100,78,51,30.21,30.16,30.12,10,10,10,13,5,17,0.00,1,,178
2013-1-15,82,70,59,70,65,59,100,83,54,30.18,30.12,30.07,10,8,0,12,3,,0.00,3,,174
2013-1-16,86,74,62,68,65,61,100,79,43,30.10,30.04,29.98,10,10,1,15,6,23,0.00,0,,193
2013-1-17,78,62,46,66,58,36,100,83,61,30.14,29.97,29.86,10,7,0,23,5,32,0.00,5,,221
2013-1-18,60,52,44,43,38,32,93,63,34,30.47,30.37,30.16,10,10,10,17,7,22,0.00,1,,17
2013-1-19,64,55,46,55,47,36,100,74,62,30.42,30.34,30.24,10,10,3,15,7,20,0.00,3,,28
2013-1-20,73,62,48,54,51,46,100,77,38,30.24,30.17,30.09,10,9,0,13,2,20,0.00,2,,285
2013-1-21,69,55,41,50,44,39,100,69,33,30.15,30.10,30.04,10,7,0,9,2,,0.00,0,,283
2013-1-22,62,52,41,43,33,27,76,49,27,30.33,30.23,30.11,10,10,10,13,5,21,0.00,0,,310
2013-1-23,62,48,33,43,34,27,93,64,31,30.44,30.33,30.27,10,10,10,14,2,17,0.00,0,,278
2013-1-24,75,62,50,54,49,41,88,66,41,30.36,30.25,30.18,10,10,10,17,10,26,0.00,2,,276
2013-1-25,69,56,44,54,48,41,100,78,52,30.37,30.28,30.18,10,9,0,15,8,25,0.00,3,,42
2013-1-26,78,63,48,61,57,46,100,80,51,30.27,30.20,30.15,10,10,1,13,5,18,0.00,3,,270
2013-1-27,66,60,53,55,53,52,100,82,60,30.44,30.38,30.27,10,10,1,20,9,26,0.00,3,,42
2013-1-28,77,66,55,61,58,54,100,84,57,30.42,30.36,30.30,10,9,4,10,5,,0.00,6,,56
2013-1-29,78,66,53,68,63,54,100,89,65,30.29,30.21,30.12,10,7,0,14,3,18,0.00,3,,155
2013-1-30,80,70,55,68,66,54,100,81,61,30.13,29.93,29.74,10,10,4,21,9,39,0.00,3,,174
2013-1-31,60,52,44,55,37,28,94,58,29,30.26,30.09,29.86,10,10,5,15,9,25,0.00,1,,270